sensor_id;sensor_type;location;lat;lon;timestamp;temperature;humidity
31967;DHT22;18496;52.042;6.812;2023-06-04T00:00:27;21.30;53.00
31967;DHT22;18496;52.042;6.812;2023-06-04T00:02:31;21.20;52.80
31967;DHT22;18496;52.042;6.812;2023-06-04T00:04:35;21.20;53.20
31967;DHT22;18496;52.042;6.812;2023-06-04T00:06:38;21.20;52.80
31967;DHT22;18496;52.042;6.812;2023-06-04T00:08:42;21.10;53.50
31967;DHT22;18496;52.042;6.812;2023-06-04T00:10:46;21.10;53.10
31967;DHT22;18496;52.042;6.812;2023-06-04T00:12:49;21.10;53.00
31967;DHT22;18496;52.042;6.812;2023-06-04T00:14:53;21.00;53.10
31967;DHT22;18496;52.042;6.812;2023-06-04T00:16:57;21.00;53.20
31967;DHT22;18496;52.042;6.812;2023-06-04T00:19:01;20.90;53.30
31967;DHT22;18496;52.042;6.812;2023-06-04T00:21:04;20.80;53.50
31967;DHT22;18496;52.042;6.812;2023-06-04T00:23:08;20.80;54.20
31967;DHT22;18496;52.042;6.812;2023-06-04T00:25:12;20.80;53.60
31967;DHT22;18496;52.042;6.812;2023-06-04T00:27:16;20.70;53.70
31967;DHT22;18496;52.042;6.812;2023-06-04T00:29:19;20.70;53.60
31967;DHT22;18496;52.042;6.812;2023-06-04T00:31:23;20.70;54.00
31967;DHT22;18496;52.042;6.812;2023-06-04T00:33:27;20.70;54.00
31967;DHT22;18496;52.042;6.812;2023-06-04T00:35:32;20.70;53.90
31967;DHT22;18496;52.042;6.812;2023-06-04T00:37:36;20.70;53.80
31967;DHT22;18496;52.042;6.812;2023-06-04T00:39:39;20.60;53.80
31967;DHT22;18496;52.042;6.812;2023-06-04T00:41:43;20.50;54.00
31967;DHT22;18496;52.042;6.812;2023-06-04T00:43:47;20.40;54.40
31967;DHT22;18496;52.042;6.812;2023-06-04T00:45:59;20.30;54.60
31967;DHT22;18496;52.042;6.812;2023-06-04T00:48:04;20.30;54.50
31967;DHT22;18496;52.042;6.812;2023-06-04T00:50:09;20.20;54.60
31967;DHT22;18496;52.042;6.812;2023-06-04T00:52:15;20.20;54.70
31967;DHT22;18496;52.042;6.812;2023-06-04T00:54:19;20.20;54.80
31967;DHT22;18496;52.042;6.812;2023-06-04T00:56:23;20.20;55.00
31967;DHT22;18496;52.042;6.812;2023-06-04T00:58:27;20.30;55.00
31967;DHT22;18496;52.042;6.812;2023-06-04T01:00:31;20.30;54.70
31967;DHT22;18496;52.042;6.812;2023-06-04T01:02:38;20.20;54.70
31967;DHT22;18496;52.042;6.812;2023-06-04T01:04:50;20.10;55.20
31967;DHT22;18496;52.042;6.812;2023-06-04T01:06:57;20.20;55.10
31967;DHT22;18496;52.042;6.812;2023-06-04T01:09:04;20.10;55.00
31967;DHT22;18496;52.042;6.812;2023-06-04T01:11:08;20.10;55.00
31967;DHT22;18496;52.042;6.812;2023-06-04T01:13:11;20.10;55.00
31967;DHT22;18496;52.042;6.812;2023-06-04T01:15:15;20.00;55.50
31967;DHT22;18496;52.042;6.812;2023-06-04T01:17:20;20.10;55.10
31967;DHT22;18496;52.042;6.812;2023-06-04T01:22:12;19.90;55.50
31967;DHT22;18496;52.042;6.812;2023-06-04T01:24:26;19.80;55.50
31967;DHT22;18496;52.042;6.812;2023-06-04T01:26:31;19.70;55.70
31967;DHT22;18496;52.042;6.812;2023-06-04T01:28:35;19.60;55.80
31967;DHT22;18496;52.042;6.812;2023-06-04T01:30:42;19.50;56.00
31967;DHT22;18496;52.042;6.812;2023-06-04T01:32:49;19.40;56.30
31967;DHT22;18496;52.042;6.812;2023-06-04T01:34:53;19.30;56.40
31967;DHT22;18496;52.042;6.812;2023-06-04T01:36:57;19.30;56.50
31967;DHT22;18496;52.042;6.812;2023-06-04T01:39:01;19.20;56.60
31967;DHT22;18496;52.042;6.812;2023-06-04T01:41:05;19.20;56.80
31967;DHT22;18496;52.042;6.812;2023-06-04T01:43:09;19.20;56.80
31967;DHT22;18496;52.042;6.812;2023-06-04T01:45:13;19.10;56.90
31967;DHT22;18496;52.042;6.812;2023-06-04T01:47:17;19.10;57.00
31967;DHT22;18496;52.042;6.812;2023-06-04T01:49:20;19.10;57.00
31967;DHT22;18496;52.042;6.812;2023-06-04T01:51:24;19.00;57.00
31967;DHT22;18496;52.042;6.812;2023-06-04T01:53:28;19.00;57.10
31967;DHT22;18496;52.042;6.812;2023-06-04T01:55:31;19.00;57.20
31967;DHT22;18496;52.042;6.812;2023-06-04T01:57:36;19.00;57.30
31967;DHT22;18496;52.042;6.812;2023-06-04T01:59:40;18.90;57.30
31967;DHT22;18496;52.042;6.812;2023-06-04T02:01:45;19.00;57.40
31967;DHT22;18496;52.042;6.812;2023-06-04T02:03:49;19.00;57.40
31967;DHT22;18496;52.042;6.812;2023-06-04T02:05:53;19.00;57.50
31967;DHT22;18496;52.042;6.812;2023-06-04T02:07:56;19.00;57.50
31967;DHT22;18496;52.042;6.812;2023-06-04T02:10:00;19.00;57.40
31967;DHT22;18496;52.042;6.812;2023-06-04T02:12:05;19.00;57.50
31967;DHT22;18496;52.042;6.812;2023-06-04T02:14:09;19.00;57.70
31967;DHT22;18496;52.042;6.812;2023-06-04T02:16:13;19.00;57.70
31967;DHT22;18496;52.042;6.812;2023-06-04T02:18:20;19.00;57.70
31967;DHT22;18496;52.042;6.812;2023-06-04T02:20:27;19.00;57.80
31967;DHT22;18496;52.042;6.812;2023-06-04T02:22:31;18.90;57.80
31967;DHT22;18496;52.042;6.812;2023-06-04T02:24:37;18.90;57.90
31967;DHT22;18496;52.042;6.812;2023-06-04T02:26:42;18.70;58.20
31967;DHT22;18496;52.042;6.812;2023-06-04T02:28:46;18.70;58.30
31967;DHT22;18496;52.042;6.812;2023-06-04T02:30:50;18.60;58.50
31967;DHT22;18496;52.042;6.812;2023-06-04T02:32:54;18.60;58.50
31967;DHT22;18496;52.042;6.812;2023-06-04T02:34:58;18.60;58.70
31967;DHT22;18496;52.042;6.812;2023-06-04T02:37:02;18.60;58.80
31967;DHT22;18496;52.042;6.812;2023-06-04T02:39:06;18.60;58.70
31967;DHT22;18496;52.042;6.812;2023-06-04T02:41:10;18.50;59.00
31967;DHT22;18496;52.042;6.812;2023-06-04T02:43:13;18.60;59.00
31967;DHT22;18496;52.042;6.812;2023-06-04T02:45:17;18.60;59.00
31967;DHT22;18496;52.042;6.812;2023-06-04T02:47:21;18.50;59.10
31967;DHT22;18496;52.042;6.812;2023-06-04T02:49:24;18.40;59.30
31967;DHT22;18496;52.042;6.812;2023-06-04T02:51:28;18.30;59.50
31967;DHT22;18496;52.042;6.812;2023-06-04T02:53:32;18.30;59.80
31967;DHT22;18496;52.042;6.812;2023-06-04T02:55:36;18.30;59.80
31967;DHT22;18496;52.042;6.812;2023-06-04T02:57:42;18.30;59.70
31967;DHT22;18496;52.042;6.812;2023-06-04T02:59:46;18.30;59.80
31967;DHT22;18496;52.042;6.812;2023-06-04T03:01:52;18.30;59.90
31967;DHT22;18496;52.042;6.812;2023-06-04T03:03:56;18.30;59.90
31967;DHT22;18496;52.042;6.812;2023-06-04T03:06:00;18.20;59.90
31967;DHT22;18496;52.042;6.812;2023-06-04T03:08:05;18.20;60.10
31967;DHT22;18496;52.042;6.812;2023-06-04T03:10:11;18.10;60.50
31967;DHT22;18496;52.042;6.812;2023-06-04T03:12:15;18.00;60.60
31967;DHT22;18496;52.042;6.812;2023-06-04T03:14:18;18.00;60.80
31967;DHT22;18496;52.042;6.812;2023-06-04T03:16:22;17.90;61.00
31967;DHT22;18496;52.042;6.812;2023-06-04T03:18:26;17.90;61.20
31967;DHT22;18496;52.042;6.812;2023-06-04T03:20:30;17.80;61.40
31967;DHT22;18496;52.042;6.812;2023-06-04T03:22:34;17.80;61.50
31967;DHT22;18496;52.042;6.812;2023-06-04T03:24:40;17.70;61.60
31967;DHT22;18496;52.042;6.812;2023-06-04T03:26:44;17.70;61.80
31967;DHT22;18496;52.042;6.812;2023-06-04T03:28:51;17.70;62.00
31967;DHT22;18496;52.042;6.812;2023-06-04T03:30:58;17.70;62.10
31967;DHT22;18496;52.042;6.812;2023-06-04T03:33:03;17.60;62.20
31967;DHT22;18496;52.042;6.812;2023-06-04T03:35:07;17.60;62.30
31967;DHT22;18496;52.042;6.812;2023-06-04T03:37:11;17.60;62.50
31967;DHT22;18496;52.042;6.812;2023-06-04T03:39:15;17.50;62.70
31967;DHT22;18496;52.042;6.812;2023-06-04T03:41:19;17.50;62.90
31967;DHT22;18496;52.042;6.812;2023-06-04T03:43:23;17.40;63.00
31967;DHT22;18496;52.042;6.812;2023-06-04T03:45:30;17.40;63.30
31967;DHT22;18496;52.042;6.812;2023-06-04T03:47:34;17.40;63.30
31967;DHT22;18496;52.042;6.812;2023-06-04T03:49:39;17.40;64.10
31967;DHT22;18496;52.042;6.812;2023-06-04T03:51:46;17.50;63.30
31967;DHT22;18496;52.042;6.812;2023-06-04T03:53:49;17.50;63.30
31967;DHT22;18496;52.042;6.812;2023-06-04T03:55:53;17.50;63.80
31967;DHT22;18496;52.042;6.812;2023-06-04T03:57:57;17.50;63.50
31967;DHT22;18496;52.042;6.812;2023-06-04T04:00:01;17.60;63.50
31967;DHT22;18496;52.042;6.812;2023-06-04T04:02:16;17.60;63.40
31967;DHT22;18496;52.042;6.812;2023-06-04T04:04:21;17.60;63.50
31967;DHT22;18496;52.042;6.812;2023-06-04T04:06:25;17.50;63.50
31967;DHT22;18496;52.042;6.812;2023-06-04T04:08:29;17.60;63.60
31967;DHT22;18496;52.042;6.812;2023-06-04T04:10:37;17.60;63.70
31967;DHT22;18496;52.042;6.812;2023-06-04T04:12:41;17.60;63.80
31967;DHT22;18496;52.042;6.812;2023-06-04T04:14:46;17.60;63.70
31967;DHT22;18496;52.042;6.812;2023-06-04T04:16:50;17.50;63.90
31967;DHT22;18496;52.042;6.812;2023-06-04T04:18:54;17.50;64.10
31967;DHT22;18496;52.042;6.812;2023-06-04T04:20:59;17.60;64.00
31967;DHT22;18496;52.042;6.812;2023-06-04T04:23:03;17.60;64.30
31967;DHT22;18496;52.042;6.812;2023-06-04T04:25:08;17.60;64.10
31967;DHT22;18496;52.042;6.812;2023-06-04T04:27:13;17.60;64.20
31967;DHT22;18496;52.042;6.812;2023-06-04T04:29:17;17.60;64.30
31967;DHT22;18496;52.042;6.812;2023-06-04T04:31:21;17.50;64.50
31967;DHT22;18496;52.042;6.812;2023-06-04T04:33:25;17.60;64.80
31967;DHT22;18496;52.042;6.812;2023-06-04T04:35:30;17.60;64.40
31967;DHT22;18496;52.042;6.812;2023-06-04T04:37:36;17.60;64.50
31967;DHT22;18496;52.042;6.812;2023-06-04T04:39:42;17.60;64.60
31967;DHT22;18496;52.042;6.812;2023-06-04T04:41:46;17.60;64.60
31967;DHT22;18496;52.042;6.812;2023-06-04T04:43:52;17.60;65.00
31967;DHT22;18496;52.042;6.812;2023-06-04T04:46:04;17.60;64.80
31967;DHT22;18496;52.042;6.812;2023-06-04T04:48:08;17.70;64.90
31967;DHT22;18496;52.042;6.812;2023-06-04T04:50:13;17.70;65.60
31967;DHT22;18496;52.042;6.812;2023-06-04T04:52:16;17.80;64.70
31967;DHT22;18496;52.042;6.812;2023-06-04T04:54:20;17.80;64.50
31967;DHT22;18496;52.042;6.812;2023-06-04T04:56:24;17.90;64.50
31967;DHT22;18496;52.042;6.812;2023-06-04T04:58:29;17.80;64.90
31967;DHT22;18496;52.042;6.812;2023-06-04T05:00:33;17.80;65.00
31967;DHT22;18496;52.042;6.812;2023-06-04T05:02:38;17.80;65.00
31967;DHT22;18496;52.042;6.812;2023-06-04T05:04:44;17.90;65.00
31967;DHT22;18496;52.042;6.812;2023-06-04T05:06:49;17.90;64.80
31967;DHT22;18496;52.042;6.812;2023-06-04T05:08:53;17.90;64.90
31967;DHT22;18496;52.042;6.812;2023-06-04T05:10:57;17.90;65.80
31967;DHT22;18496;52.042;6.812;2023-06-04T05:13:00;17.90;65.30
31967;DHT22;18496;52.042;6.812;2023-06-04T05:15:12;17.90;65.30
31967;DHT22;18496;52.042;6.812;2023-06-04T05:17:17;17.90;65.40
31967;DHT22;18496;52.042;6.812;2023-06-04T05:19:25;18.00;65.30
31967;DHT22;18496;52.042;6.812;2023-06-04T05:21:29;18.10;65.30
31967;DHT22;18496;52.042;6.812;2023-06-04T05:23:38;18.10;65.10
31967;DHT22;18496;52.042;6.812;2023-06-04T05:25:45;18.10;65.10
31967;DHT22;18496;52.042;6.812;2023-06-04T05:27:50;18.10;65.00
31967;DHT22;18496;52.042;6.812;2023-06-04T05:29:56;18.10;65.20
31967;DHT22;18496;52.042;6.812;2023-06-04T05:31:59;18.20;65.30
31967;DHT22;18496;52.042;6.812;2023-06-04T05:34:03;18.20;65.30
31967;DHT22;18496;52.042;6.812;2023-06-04T05:36:11;18.30;65.10
31967;DHT22;18496;52.042;6.812;2023-06-04T05:38:22;18.30;65.00
31967;DHT22;18496;52.042;6.812;2023-06-04T05:40:29;18.30;65.10
31967;DHT22;18496;52.042;6.812;2023-06-04T05:42:33;18.30;64.90
31967;DHT22;18496;52.042;6.812;2023-06-04T05:44:38;18.40;64.90
31967;DHT22;18496;52.042;6.812;2023-06-04T05:46:42;18.40;65.00
31967;DHT22;18496;52.042;6.812;2023-06-04T05:48:48;18.40;64.80
31967;DHT22;18496;52.042;6.812;2023-06-04T05:50:52;18.40;64.90
31967;DHT22;18496;52.042;6.812;2023-06-04T05:52:56;18.50;65.10
31967;DHT22;18496;52.042;6.812;2023-06-04T05:55:00;18.50;65.10
31967;DHT22;18496;52.042;6.812;2023-06-04T05:57:04;18.60;64.80
31967;DHT22;18496;52.042;6.812;2023-06-04T05:59:09;18.60;64.90
31967;DHT22;18496;52.042;6.812;2023-06-04T06:01:12;18.60;65.10
31967;DHT22;18496;52.042;6.812;2023-06-04T06:03:16;18.70;64.70
31967;DHT22;18496;52.042;6.812;2023-06-04T06:05:23;18.70;64.50
31967;DHT22;18496;52.042;6.812;2023-06-04T06:07:27;18.80;64.50
31967;DHT22;18496;52.042;6.812;2023-06-04T06:09:30;18.80;64.50
31967;DHT22;18496;52.042;6.812;2023-06-04T06:11:34;18.90;64.30
31967;DHT22;18496;52.042;6.812;2023-06-04T06:13:38;18.90;64.70
31967;DHT22;18496;52.042;6.812;2023-06-04T06:15:43;18.90;64.10
31967;DHT22;18496;52.042;6.812;2023-06-04T06:17:46;19.00;63.80
31967;DHT22;18496;52.042;6.812;2023-06-04T06:19:50;19.10;64.10
31967;DHT22;18496;52.042;6.812;2023-06-04T06:21:55;19.10;64.30
31967;DHT22;18496;52.042;6.812;2023-06-04T06:23:59;19.20;63.90
31967;DHT22;18496;52.042;6.812;2023-06-04T06:26:03;19.30;63.10
31967;DHT22;18496;52.042;6.812;2023-06-04T06:28:13;19.30;63.10
31967;DHT22;18496;52.042;6.812;2023-06-04T06:30:17;19.40;62.60
31967;DHT22;18496;52.042;6.812;2023-06-04T06:32:21;19.40;62.80
31967;DHT22;18496;52.042;6.812;2023-06-04T06:34:25;19.40;62.60
31967;DHT22;18496;52.042;6.812;2023-06-04T06:36:29;19.50;62.50
31967;DHT22;18496;52.042;6.812;2023-06-04T06:38:33;19.50;62.50
31967;DHT22;18496;52.042;6.812;2023-06-04T06:40:36;19.60;62.10
31967;DHT22;18496;52.042;6.812;2023-06-04T06:42:40;19.60;62.00
31967;DHT22;18496;52.042;6.812;2023-06-04T06:44:44;19.60;61.60
31967;DHT22;18496;52.042;6.812;2023-06-04T06:46:48;19.60;61.40
31967;DHT22;18496;52.042;6.812;2023-06-04T06:48:52;19.60;60.50
31967;DHT22;18496;52.042;6.812;2023-06-04T06:50:55;19.60;61.10
31967;DHT22;18496;52.042;6.812;2023-06-04T06:52:59;19.70;61.90
31967;DHT22;18496;52.042;6.812;2023-06-04T06:55:04;19.80;62.00
31967;DHT22;18496;52.042;6.812;2023-06-04T06:57:08;19.80;61.90
31967;DHT22;18496;52.042;6.812;2023-06-04T06:59:12;19.80;61.60
31967;DHT22;18496;52.042;6.812;2023-06-04T07:01:15;19.80;61.90
31967;DHT22;18496;52.042;6.812;2023-06-04T07:03:19;19.80;61.70
31967;DHT22;18496;52.042;6.812;2023-06-04T07:05:23;19.90;61.60
31967;DHT22;18496;52.042;6.812;2023-06-04T07:07:27;19.90;61.50
31967;DHT22;18496;52.042;6.812;2023-06-04T07:09:30;20.00;61.50
31967;DHT22;18496;52.042;6.812;2023-06-04T07:11:34;20.00;61.20
31967;DHT22;18496;52.042;6.812;2023-06-04T07:13:38;20.10;60.90
31967;DHT22;18496;52.042;6.812;2023-06-04T07:15:42;20.10;60.00
31967;DHT22;18496;52.042;6.812;2023-06-04T07:17:46;20.10;59.80
31967;DHT22;18496;52.042;6.812;2023-06-04T07:19:49;20.20;59.80
31967;DHT22;18496;52.042;6.812;2023-06-04T07:21:54;20.20;59.20
31967;DHT22;18496;52.042;6.812;2023-06-04T07:23:58;20.30;59.20
31967;DHT22;18496;52.042;6.812;2023-06-04T07:26:01;20.40;59.10
31967;DHT22;18496;52.042;6.812;2023-06-04T07:28:05;20.40;58.90
31967;DHT22;18496;52.042;6.812;2023-06-04T07:30:09;20.40;58.80
31967;DHT22;18496;52.042;6.812;2023-06-04T07:32:13;20.50;58.50
31967;DHT22;18496;52.042;6.812;2023-06-04T07:34:17;20.50;58.30
31967;DHT22;18496;52.042;6.812;2023-06-04T07:36:20;20.60;58.50
31967;DHT22;18496;52.042;6.812;2023-06-04T07:38:24;20.60;58.40
31967;DHT22;18496;52.042;6.812;2023-06-04T07:40:28;20.70;58.10
31967;DHT22;18496;52.042;6.812;2023-06-04T07:42:32;20.70;58.60
31967;DHT22;18496;52.042;6.812;2023-06-04T07:44:37;20.70;58.60
31967;DHT22;18496;52.042;6.812;2023-06-04T07:46:41;20.80;58.30
31967;DHT22;18496;52.042;6.812;2023-06-04T07:48:45;20.80;58.90
31967;DHT22;18496;52.042;6.812;2023-06-04T07:50:49;20.90;58.50
31967;DHT22;18496;52.042;6.812;2023-06-04T07:52:52;20.90;57.60
31967;DHT22;18496;52.042;6.812;2023-06-04T07:54:56;21.00;57.80
31967;DHT22;18496;52.042;6.812;2023-06-04T07:57:00;21.00;57.50
31967;DHT22;18496;52.042;6.812;2023-06-04T07:59:03;21.00;58.10
31967;DHT22;18496;52.042;6.812;2023-06-04T08:01:07;21.00;57.60
31967;DHT22;18496;52.042;6.812;2023-06-04T08:03:12;21.10;57.20
31967;DHT22;18496;52.042;6.812;2023-06-04T08:05:16;21.10;56.80
31967;DHT22;18496;52.042;6.812;2023-06-04T08:07:20;21.20;56.20
31967;DHT22;18496;52.042;6.812;2023-06-04T08:09:23;21.30;55.90
31967;DHT22;18496;52.042;6.812;2023-06-04T08:11:27;21.30;55.90
31967;DHT22;18496;52.042;6.812;2023-06-04T08:13:31;21.40;55.00
31967;DHT22;18496;52.042;6.812;2023-06-04T08:15:34;21.40;55.10
31967;DHT22;18496;52.042;6.812;2023-06-04T08:17:38;21.50;55.20
31967;DHT22;18496;52.042;6.812;2023-06-04T08:19:42;21.50;55.60
31967;DHT22;18496;52.042;6.812;2023-06-04T08:21:46;21.60;55.10
31967;DHT22;18496;52.042;6.812;2023-06-04T08:23:50;21.70;54.80
31967;DHT22;18496;52.042;6.812;2023-06-04T08:25:54;21.70;54.60
31967;DHT22;18496;52.042;6.812;2023-06-04T08:27:57;21.80;54.40
31967;DHT22;18496;52.042;6.812;2023-06-04T08:30:01;21.80;54.80
31967;DHT22;18496;52.042;6.812;2023-06-04T08:32:05;21.90;54.70
31967;DHT22;18496;52.042;6.812;2023-06-04T08:34:11;22.00;54.00
31967;DHT22;18496;52.042;6.812;2023-06-04T08:36:14;22.00;53.70
31967;DHT22;18496;52.042;6.812;2023-06-04T08:38:21;22.10;54.40
31967;DHT22;18496;52.042;6.812;2023-06-04T08:40:25;22.10;53.60
31967;DHT22;18496;52.042;6.812;2023-06-04T08:42:30;22.20;53.30
31967;DHT22;18496;52.042;6.812;2023-06-04T08:44:34;22.20;51.80
31967;DHT22;18496;52.042;6.812;2023-06-04T08:46:39;22.30;51.90
31967;DHT22;18496;52.042;6.812;2023-06-04T08:48:44;22.40;52.50
31967;DHT22;18496;52.042;6.812;2023-06-04T08:50:48;22.40;52.20
31967;DHT22;18496;52.042;6.812;2023-06-04T08:52:54;22.50;51.20
31967;DHT22;18496;52.042;6.812;2023-06-04T08:54:59;22.50;50.70
31967;DHT22;18496;52.042;6.812;2023-06-04T08:57:03;22.60;50.40
31967;DHT22;18496;52.042;6.812;2023-06-04T08:59:10;22.70;50.90
31967;DHT22;18496;52.042;6.812;2023-06-04T09:01:14;22.70;50.60
31967;DHT22;18496;52.042;6.812;2023-06-04T09:03:19;22.80;48.60
31967;DHT22;18496;52.042;6.812;2023-06-04T09:05:24;22.90;48.60
31967;DHT22;18496;52.042;6.812;2023-06-04T09:07:28;22.90;48.20
31967;DHT22;18496;52.042;6.812;2023-06-04T09:09:37;23.00;49.10
31967;DHT22;18496;52.042;6.812;2023-06-04T09:11:51;23.10;49.20
31967;DHT22;18496;52.042;6.812;2023-06-04T09:13:59;23.10;48.70
31967;DHT22;18496;52.042;6.812;2023-06-04T09:16:05;23.10;46.90
31967;DHT22;18496;52.042;6.812;2023-06-04T09:18:12;23.20;46.60
31967;DHT22;18496;52.042;6.812;2023-06-04T09:20:19;23.20;47.00
31967;DHT22;18496;52.042;6.812;2023-06-04T09:22:35;23.30;47.10
31967;DHT22;18496;52.042;6.812;2023-06-04T09:24:47;23.40;46.90
31967;DHT22;18496;52.042;6.812;2023-06-04T09:26:51;23.50;47.00
31967;DHT22;18496;52.042;6.812;2023-06-04T09:28:55;23.60;46.80
31967;DHT22;18496;52.042;6.812;2023-06-04T09:31:00;23.60;46.60
31967;DHT22;18496;52.042;6.812;2023-06-04T09:33:09;23.70;45.90
31967;DHT22;18496;52.042;6.812;2023-06-04T09:35:19;23.80;45.10
31967;DHT22;18496;52.042;6.812;2023-06-04T09:37:23;23.90;44.40
31967;DHT22;18496;52.042;6.812;2023-06-04T09:39:26;23.90;45.00
31967;DHT22;18496;52.042;6.812;2023-06-04T09:41:30;24.00;44.60
31967;DHT22;18496;52.042;6.812;2023-06-04T09:43:34;24.10;45.20
31967;DHT22;18496;52.042;6.812;2023-06-04T09:45:38;24.10;45.10
31967;DHT22;18496;52.042;6.812;2023-06-04T09:47:42;24.20;45.60
31967;DHT22;18496;52.042;6.812;2023-06-04T09:49:48;24.30;44.50
31967;DHT22;18496;52.042;6.812;2023-06-04T09:51:54;24.30;44.70
31967;DHT22;18496;52.042;6.812;2023-06-04T09:54:02;24.40;45.90
31967;DHT22;18496;52.042;6.812;2023-06-04T09:56:08;24.40;45.10
31967;DHT22;18496;52.042;6.812;2023-06-04T09:58:14;24.50;44.70
31967;DHT22;18496;52.042;6.812;2023-06-04T10:00:20;24.50;44.40
31967;DHT22;18496;52.042;6.812;2023-06-04T10:02:29;24.60;43.90
31967;DHT22;18496;52.042;6.812;2023-06-04T10:04:34;24.60;43.90
31967;DHT22;18496;52.042;6.812;2023-06-04T10:06:39;24.70;43.40
31967;DHT22;18496;52.042;6.812;2023-06-04T10:08:45;24.70;43.00
31967;DHT22;18496;52.042;6.812;2023-06-04T10:10:50;24.70;42.80
31967;DHT22;18496;52.042;6.812;2023-06-04T10:13:09;24.80;43.30
31967;DHT22;18496;52.042;6.812;2023-06-04T10:15:17;24.80;43.80
31967;DHT22;18496;52.042;6.812;2023-06-04T10:17:23;24.80;43.40
31967;DHT22;18496;52.042;6.812;2023-06-04T10:19:28;24.80;43.20
31967;DHT22;18496;52.042;6.812;2023-06-04T10:21:32;24.90;43.30
31967;DHT22;18496;52.042;6.812;2023-06-04T10:23:38;25.00;43.50
31967;DHT22;18496;52.042;6.812;2023-06-04T10:25:42;25.00;42.90
31967;DHT22;18496;52.042;6.812;2023-06-04T10:27:46;25.10;42.00
31967;DHT22;18496;52.042;6.812;2023-06-04T10:29:50;25.20;43.30
31967;DHT22;18496;52.042;6.812;2023-06-04T10:31:55;25.20;42.40
31967;DHT22;18496;52.042;6.812;2023-06-04T10:34:00;25.30;42.60
31967;DHT22;18496;52.042;6.812;2023-06-04T10:36:18;25.40;42.50
31967;DHT22;18496;52.042;6.812;2023-06-04T10:38:22;25.50;42.10
31967;DHT22;18496;52.042;6.812;2023-06-04T10:40:33;25.50;42.50
31967;DHT22;18496;52.042;6.812;2023-06-04T10:42:42;25.60;42.50
31967;DHT22;18496;52.042;6.812;2023-06-04T10:44:47;25.60;43.00
31967;DHT22;18496;52.042;6.812;2023-06-04T10:46:51;25.70;42.30
31967;DHT22;18496;52.042;6.812;2023-06-04T10:48:54;25.70;42.30
31967;DHT22;18496;52.042;6.812;2023-06-04T10:50:58;25.70;42.50
31967;DHT22;18496;52.042;6.812;2023-06-04T10:53:02;25.80;42.50
31967;DHT22;18496;52.042;6.812;2023-06-04T10:55:09;25.90;42.00
31967;DHT22;18496;52.042;6.812;2023-06-04T10:57:16;26.00;42.00
31967;DHT22;18496;52.042;6.812;2023-06-04T10:59:23;26.10;42.50
31967;DHT22;18496;52.042;6.812;2023-06-04T11:01:29;26.20;41.50
31967;DHT22;18496;52.042;6.812;2023-06-04T11:03:36;26.30;41.70
31967;DHT22;18496;52.042;6.812;2023-06-04T11:05:45;26.30;41.10
31967;DHT22;18496;52.042;6.812;2023-06-04T11:07:49;26.40;41.30
31967;DHT22;18496;52.042;6.812;2023-06-04T11:09:53;26.40;41.60
31967;DHT22;18496;52.042;6.812;2023-06-04T11:11:58;26.50;41.30
31967;DHT22;18496;52.042;6.812;2023-06-04T11:14:12;26.50;41.10
31967;DHT22;18496;52.042;6.812;2023-06-04T11:16:21;26.60;42.00
31967;DHT22;18496;52.042;6.812;2023-06-04T11:18:25;26.70;41.00
31967;DHT22;18496;52.042;6.812;2023-06-04T11:20:30;26.80;40.40
31967;DHT22;18496;52.042;6.812;2023-06-04T11:22:33;26.90;40.70
31967;DHT22;18496;52.042;6.812;2023-06-04T11:24:37;27.00;41.20
31967;DHT22;18496;52.042;6.812;2023-06-04T11:26:41;27.10;40.40
31967;DHT22;18496;52.042;6.812;2023-06-04T11:28:48;27.20;40.30
31967;DHT22;18496;52.042;6.812;2023-06-04T11:30:57;27.20;41.20
31967;DHT22;18496;52.042;6.812;2023-06-04T11:33:05;27.30;40.50
31967;DHT22;18496;52.042;6.812;2023-06-04T11:35:09;27.40;41.20
31967;DHT22;18496;52.042;6.812;2023-06-04T11:37:14;27.40;40.30
31967;DHT22;18496;52.042;6.812;2023-06-04T11:39:19;27.40;40.90
31967;DHT22;18496;52.042;6.812;2023-06-04T11:41:24;27.50;40.10
31967;DHT22;18496;52.042;6.812;2023-06-04T11:43:28;27.50;39.30
31967;DHT22;18496;52.042;6.812;2023-06-04T11:45:32;27.60;41.40
31967;DHT22;18496;52.042;6.812;2023-06-04T11:47:36;27.70;40.10
31967;DHT22;18496;52.042;6.812;2023-06-04T11:49:40;27.80;39.10
31967;DHT22;18496;52.042;6.812;2023-06-04T11:51:51;27.80;39.10
31967;DHT22;18496;52.042;6.812;2023-06-04T11:53:55;27.80;39.00
31967;DHT22;18496;52.042;6.812;2023-06-04T11:55:59;27.90;39.70
31967;DHT22;18496;52.042;6.812;2023-06-04T11:58:03;28.00;40.50
31967;DHT22;18496;52.042;6.812;2023-06-04T12:00:07;28.00;39.40
31967;DHT22;18496;52.042;6.812;2023-06-04T12:02:14;28.10;39.10
31967;DHT22;18496;52.042;6.812;2023-06-04T12:04:19;28.10;39.40
31967;DHT22;18496;52.042;6.812;2023-06-04T12:06:22;28.10;39.20
31967;DHT22;18496;52.042;6.812;2023-06-04T12:08:26;28.10;38.40
31967;DHT22;18496;52.042;6.812;2023-06-04T12:10:40;28.00;38.80
31967;DHT22;18496;52.042;6.812;2023-06-04T12:12:43;28.00;39.90
31967;DHT22;18496;52.042;6.812;2023-06-04T12:14:47;28.10;40.00
31967;DHT22;18496;52.042;6.812;2023-06-04T12:17:15;28.20;39.20
31967;DHT22;18496;52.042;6.812;2023-06-04T12:19:18;28.30;39.20
31967;DHT22;18496;52.042;6.812;2023-06-04T12:21:24;28.40;39.00
31967;DHT22;18496;52.042;6.812;2023-06-04T12:23:30;28.50;38.70
31967;DHT22;18496;52.042;6.812;2023-06-04T12:25:35;28.60;38.10
31967;DHT22;18496;52.042;6.812;2023-06-04T12:27:46;28.70;38.60
31967;DHT22;18496;52.042;6.812;2023-06-04T12:29:55;28.80;38.90
31967;DHT22;18496;52.042;6.812;2023-06-04T12:32:03;28.90;38.20
31967;DHT22;18496;52.042;6.812;2023-06-04T12:34:16;29.00;38.30
31967;DHT22;18496;52.042;6.812;2023-06-04T12:36:21;29.10;38.60
31967;DHT22;18496;52.042;6.812;2023-06-04T12:38:24;29.20;37.70
31967;DHT22;18496;52.042;6.812;2023-06-04T12:40:28;29.20;37.60
31967;DHT22;18496;52.042;6.812;2023-06-04T12:42:32;29.10;37.50
31967;DHT22;18496;52.042;6.812;2023-06-04T12:44:39;29.10;38.00
31967;DHT22;18496;52.042;6.812;2023-06-04T12:46:43;29.10;38.30
31967;DHT22;18496;52.042;6.812;2023-06-04T12:48:48;29.30;37.80
31967;DHT22;18496;52.042;6.812;2023-06-04T12:50:52;29.40;38.10
31967;DHT22;18496;52.042;6.812;2023-06-04T12:52:55;29.60;38.60
31967;DHT22;18496;52.042;6.812;2023-06-04T12:54:59;29.70;37.50
31967;DHT22;18496;52.042;6.812;2023-06-04T12:57:03;29.80;37.90
31967;DHT22;18496;52.042;6.812;2023-06-04T12:59:07;29.90;37.70
31967;DHT22;18496;52.042;6.812;2023-06-04T13:01:10;30.00;39.40
31967;DHT22;18496;52.042;6.812;2023-06-04T13:03:15;30.00;37.10
31967;DHT22;18496;52.042;6.812;2023-06-04T13:05:18;30.00;37.20
31967;DHT22;18496;52.042;6.812;2023-06-04T13:07:22;30.00;36.80
31967;DHT22;18496;52.042;6.812;2023-06-04T13:09:26;30.00;36.40
31967;DHT22;18496;52.042;6.812;2023-06-04T13:11:31;30.00;37.40